Elkton, South Dakota
Current Conditions -  °F | °C
As of 11:14 AM on Sunday 21 Dec 2014 (Local Time) from KPQN Reporting Station
Light Snow Light Snow  
Wind Chill: 28°   Ceiling: 100
Heat Index: 34°   Visibility: 0.25mi
Dew Point: 34°   Wind: 7mph
Humidity: 100%   Direction: 200°SSW
Pressure: 29.7"   Gusts: NA
Location:  44.24°N, 96.48°W
Report Text: KPQN 211714Z AUTO 20006KT 1/4SM -SN OVC001 01/01 A2970 RMK AO2
Loading
Personal Weather Stations






























Interactive Weather Map New forecast layout! Learn more

10-Day Weather Forecast

Advertisements
Track Severe Weather on mobile